sensor_id;sensor_type;location;lat;lon;timestamp;P1;durP1;ratioP1;P2;durP2;ratioP2
18997;SDS011;9632;51.018;4.284;2024-03-17T00:01:35;6.15;;;2.63;;
18997;SDS011;9632;51.018;4.284;2024-03-17T00:04:01;5.70;;;2.80;;
18997;SDS011;9632;51.018;4.284;2024-03-17T00:06:27;6.30;;;3.00;;
18997;SDS011;9632;51.018;4.284;2024-03-17T00:08:53;7.15;;;3.00;;
18997;SDS011;9632;51.018;4.284;2024-03-17T00:11:20;5.50;;;2.90;;
18997;SDS011;9632;51.018;4.284;2024-03-17T00:13:45;6.40;;;3.03;;
18997;SDS011;9632;51.018;4.284;2024-03-17T00:16:12;9.25;;;3.40;;
18997;SDS011;9632;51.018;4.284;2024-03-17T00:18:38;4.97;;;2.78;;
18997;SDS011;9632;51.018;4.284;2024-03-17T00:21:04;6.38;;;3.20;;
18997;SDS011;9632;51.018;4.284;2024-03-17T00:23:30;9.13;;;3.08;;
18997;SDS011;9632;51.018;4.284;2024-03-17T00:25:55;5.00;;;2.85;;
18997;SDS011;9632;51.018;4.284;2024-03-17T00:28:21;5.95;;;2.90;;
18997;SDS011;9632;51.018;4.284;2024-03-17T00:30:47;5.63;;;3.25;;
18997;SDS011;9632;51.018;4.284;2024-03-17T00:33:12;8.48;;;3.17;;
18997;SDS011;9632;51.018;4.284;2024-03-17T00:35:39;7.05;;;3.20;;
18997;SDS011;9632;51.018;4.284;2024-03-17T00:38:05;8.43;;;3.47;;
18997;SDS011;9632;51.018;4.284;2024-03-17T00:40:36;7.90;;;3.47;;
18997;SDS011;9632;51.018;4.284;2024-03-17T00:43:02;9.05;;;3.88;;
18997;SDS011;9632;51.018;4.284;2024-03-17T00:45:28;9.20;;;4.30;;
18997;SDS011;9632;51.018;4.284;2024-03-17T00:47:53;10.25;;;4.03;;
18997;SDS011;9632;51.018;4.284;2024-03-17T00:50:19;8.60;;;4.30;;
18997;SDS011;9632;51.018;4.284;2024-03-17T00:52:45;8.05;;;4.05;;
18997;SDS011;9632;51.018;4.284;2024-03-17T00:55:10;10.45;;;4.10;;
18997;SDS011;9632;51.018;4.284;2024-03-17T00:57:36;12.50;;;4.30;;
18997;SDS011;9632;51.018;4.284;2024-03-17T01:00:02;9.18;;;4.20;;
18997;SDS011;9632;51.018;4.284;2024-03-17T01:02:29;8.90;;;4.45;;
18997;SDS011;9632;51.018;4.284;2024-03-17T01:04:55;9.77;;;3.97;;
18997;SDS011;9632;51.018;4.284;2024-03-17T01:07:21;9.27;;;4.15;;
18997;SDS011;9632;51.018;4.284;2024-03-17T01:09:47;10.10;;;3.97;;
18997;SDS011;9632;51.018;4.284;2024-03-17T01:12:13;8.88;;;4.18;;
18997;SDS011;9632;51.018;4.284;2024-03-17T01:14:39;8.77;;;4.15;;
18997;SDS011;9632;51.018;4.284;2024-03-17T01:17:05;10.68;;;4.35;;
18997;SDS011;9632;51.018;4.284;2024-03-17T01:19:31;8.95;;;4.20;;
18997;SDS011;9632;51.018;4.284;2024-03-17T01:21:57;9.20;;;4.47;;
18997;SDS011;9632;51.018;4.284;2024-03-17T01:24:25;8.05;;;3.97;;
18997;SDS011;9632;51.018;4.284;2024-03-17T01:26:53;9.02;;;4.32;;
18997;SDS011;9632;51.018;4.284;2024-03-17T01:29:18;9.48;;;4.03;;
18997;SDS011;9632;51.018;4.284;2024-03-17T01:31:44;9.10;;;4.05;;
18997;SDS011;9632;51.018;4.284;2024-03-17T01:34:09;8.43;;;4.00;;
18997;SDS011;9632;51.018;4.284;2024-03-17T01:36:36;10.82;;;4.70;;
18997;SDS011;9632;51.018;4.284;2024-03-17T01:39:02;9.48;;;4.30;;
18997;SDS011;9632;51.018;4.284;2024-03-17T01:41:27;8.98;;;4.22;;
18997;SDS011;9632;51.018;4.284;2024-03-17T01:43:53;9.88;;;4.53;;
18997;SDS011;9632;51.018;4.284;2024-03-17T01:46:19;9.73;;;4.88;;
18997;SDS011;9632;51.018;4.284;2024-03-17T01:48:44;9.15;;;4.70;;
18997;SDS011;9632;51.018;4.284;2024-03-17T01:51:11;8.38;;;4.10;;
18997;SDS011;9632;51.018;4.284;2024-03-17T01:53:40;7.90;;;4.20;;
18997;SDS011;9632;51.018;4.284;2024-03-17T01:56:07;9.43;;;4.82;;
18997;SDS011;9632;51.018;4.284;2024-03-17T01:58:35;9.02;;;3.88;;
18997;SDS011;9632;51.018;4.284;2024-03-17T02:01:01;8.55;;;4.30;;
18997;SDS011;9632;51.018;4.284;2024-03-17T02:03:29;9.15;;;4.72;;
18997;SDS011;9632;51.018;4.284;2024-03-17T02:05:55;9.32;;;4.07;;
18997;SDS011;9632;51.018;4.284;2024-03-17T02:08:21;9.05;;;4.30;;
18997;SDS011;9632;51.018;4.284;2024-03-17T02:10:52;9.25;;;4.32;;
18997;SDS011;9632;51.018;4.284;2024-03-17T02:13:19;8.35;;;4.13;;
18997;SDS011;9632;51.018;4.284;2024-03-17T02:15:46;7.13;;;4.20;;
18997;SDS011;9632;51.018;4.284;2024-03-17T02:18:12;9.32;;;4.50;;
18997;SDS011;9632;51.018;4.284;2024-03-17T02:20:38;8.32;;;4.18;;
18997;SDS011;9632;51.018;4.284;2024-03-17T02:23:22;7.63;;;4.30;;
18997;SDS011;9632;51.018;4.284;2024-03-17T02:25:51;8.13;;;4.20;;
18997;SDS011;9632;51.018;4.284;2024-03-17T02:28:17;9.15;;;4.40;;
18997;SDS011;9632;51.018;4.284;2024-03-17T02:30:43;7.75;;;4.07;;
18997;SDS011;9632;51.018;4.284;2024-03-17T02:33:09;9.30;;;4.25;;
18997;SDS011;9632;51.018;4.284;2024-03-17T02:35:35;7.70;;;4.03;;
18997;SDS011;9632;51.018;4.284;2024-03-17T02:38:01;7.95;;;4.10;;
18997;SDS011;9632;51.018;4.284;2024-03-17T02:40:27;7.80;;;4.60;;
18997;SDS011;9632;51.018;4.284;2024-03-17T02:42:53;8.45;;;4.03;;
18997;SDS011;9632;51.018;4.284;2024-03-17T02:45:20;7.95;;;4.18;;
18997;SDS011;9632;51.018;4.284;2024-03-17T02:47:46;8.00;;;4.03;;
18997;SDS011;9632;51.018;4.284;2024-03-17T02:50:11;7.78;;;4.03;;
18997;SDS011;9632;51.018;4.284;2024-03-17T02:52:38;8.57;;;3.95;;
18997;SDS011;9632;51.018;4.284;2024-03-17T02:55:04;7.20;;;4.18;;
18997;SDS011;9632;51.018;4.284;2024-03-17T02:57:31;7.03;;;4.10;;
18997;SDS011;9632;51.018;4.284;2024-03-17T02:59:57;6.63;;;4.20;;
18997;SDS011;9632;51.018;4.284;2024-03-17T03:02:23;9.07;;;4.45;;
18997;SDS011;9632;51.018;4.284;2024-03-17T03:04:49;8.05;;;4.00;;
18997;SDS011;9632;51.018;4.284;2024-03-17T03:07:15;9.75;;;3.83;;
18997;SDS011;9632;51.018;4.284;2024-03-17T03:09:41;8.93;;;4.13;;
18997;SDS011;9632;51.018;4.284;2024-03-17T03:12:07;6.97;;;3.85;;
18997;SDS011;9632;51.018;4.284;2024-03-17T03:14:33;6.60;;;3.72;;
18997;SDS011;9632;51.018;4.284;2024-03-17T03:16:58;9.10;;;4.40;;
18997;SDS011;9632;51.018;4.284;2024-03-17T03:19:25;7.05;;;3.78;;
18997;SDS011;9632;51.018;4.284;2024-03-17T03:21:52;7.00;;;4.25;;
18997;SDS011;9632;51.018;4.284;2024-03-17T03:24:18;10.05;;;4.03;;
18997;SDS011;9632;51.018;4.284;2024-03-17T03:26:43;8.77;;;4.00;;
18997;SDS011;9632;51.018;4.284;2024-03-17T03:29:09;8.13;;;4.15;;
18997;SDS011;9632;51.018;4.284;2024-03-17T03:31:35;7.25;;;3.85;;
18997;SDS011;9632;51.018;4.284;2024-03-17T03:34:01;6.82;;;3.80;;
18997;SDS011;9632;51.018;4.284;2024-03-17T03:36:28;8.75;;;4.05;;
18997;SDS011;9632;51.018;4.284;2024-03-17T03:38:53;6.70;;;4.00;;
18997;SDS011;9632;51.018;4.284;2024-03-17T03:41:22;8.40;;;4.40;;
18997;SDS011;9632;51.018;4.284;2024-03-17T03:43:48;7.90;;;4.22;;
18997;SDS011;9632;51.018;4.284;2024-03-17T03:46:14;7.50;;;4.10;;
18997;SDS011;9632;51.018;4.284;2024-03-17T03:48:40;7.65;;;4.05;;
18997;SDS011;9632;51.018;4.284;2024-03-17T03:51:06;6.32;;;3.67;;
18997;SDS011;9632;51.018;4.284;2024-03-17T03:53:33;7.18;;;3.72;;
18997;SDS011;9632;51.018;4.284;2024-03-17T03:55:59;6.57;;;3.80;;
18997;SDS011;9632;51.018;4.284;2024-03-17T03:58:26;7.32;;;3.58;;
18997;SDS011;9632;51.018;4.284;2024-03-17T04:00:54;6.88;;;3.95;;
18997;SDS011;9632;51.018;4.284;2024-03-17T04:03:20;8.35;;;3.72;;
18997;SDS011;9632;51.018;4.284;2024-03-17T04:05:46;6.03;;;3.75;;
18997;SDS011;9632;51.018;4.284;2024-03-17T04:08:11;7.78;;;3.72;;
18997;SDS011;9632;51.018;4.284;2024-03-17T04:10:37;6.30;;;3.42;;
18997;SDS011;9632;51.018;4.284;2024-03-17T04:13:02;7.57;;;3.78;;
18997;SDS011;9632;51.018;4.284;2024-03-17T04:15:28;7.70;;;3.60;;
18997;SDS011;9632;51.018;4.284;2024-03-17T04:17:54;6.05;;;3.53;;
18997;SDS011;9632;51.018;4.284;2024-03-17T04:20:19;5.78;;;3.47;;
18997;SDS011;9632;51.018;4.284;2024-03-17T04:22:46;9.05;;;3.95;;
18997;SDS011;9632;51.018;4.284;2024-03-17T04:25:13;7.57;;;3.80;;
18997;SDS011;9632;51.018;4.284;2024-03-17T04:27:39;8.85;;;3.90;;
18997;SDS011;9632;51.018;4.284;2024-03-17T04:30:06;5.25;;;3.28;;
18997;SDS011;9632;51.018;4.284;2024-03-17T04:32:33;5.65;;;3.40;;
18997;SDS011;9632;51.018;4.284;2024-03-17T04:34:59;6.03;;;3.35;;
18997;SDS011;9632;51.018;4.284;2024-03-17T04:37:24;7.18;;;3.88;;
18997;SDS011;9632;51.018;4.284;2024-03-17T04:39:50;7.05;;;3.60;;
18997;SDS011;9632;51.018;4.284;2024-03-17T04:42:16;4.68;;;3.10;;
18997;SDS011;9632;51.018;4.284;2024-03-17T04:44:45;8.50;;;3.97;;
18997;SDS011;9632;51.018;4.284;2024-03-17T04:47:11;7.75;;;3.55;;
18997;SDS011;9632;51.018;4.284;2024-03-17T04:49:41;8.77;;;3.88;;
18997;SDS011;9632;51.018;4.284;2024-03-17T04:52:08;6.28;;;3.63;;
18997;SDS011;9632;51.018;4.284;2024-03-17T04:54:36;7.32;;;4.03;;
18997;SDS011;9632;51.018;4.284;2024-03-17T04:57:01;6.65;;;3.88;;
18997;SDS011;9632;51.018;4.284;2024-03-17T04:59:28;6.82;;;3.72;;
18997;SDS011;9632;51.018;4.284;2024-03-17T05:01:54;7.03;;;4.20;;
18997;SDS011;9632;51.018;4.284;2024-03-17T05:04:19;7.47;;;4.30;;
18997;SDS011;9632;51.018;4.284;2024-03-17T05:06:46;9.27;;;4.25;;
18997;SDS011;9632;51.018;4.284;2024-03-17T05:09:17;7.00;;;4.22;;
18997;SDS011;9632;51.018;4.284;2024-03-17T05:11:43;7.43;;;4.07;;
18997;SDS011;9632;51.018;4.284;2024-03-17T05:14:09;7.03;;;4.03;;
18997;SDS011;9632;51.018;4.284;2024-03-17T05:16:35;9.82;;;4.53;;
18997;SDS011;9632;51.018;4.284;2024-03-17T05:19:01;7.45;;;3.95;;
18997;SDS011;9632;51.018;4.284;2024-03-17T05:21:28;8.27;;;4.00;;
18997;SDS011;9632;51.018;4.284;2024-03-17T05:23:55;10.05;;;4.07;;
18997;SDS011;9632;51.018;4.284;2024-03-17T05:26:26;8.02;;;3.60;;
18997;SDS011;9632;51.018;4.284;2024-03-17T05:28:52;8.23;;;3.95;;
18997;SDS011;9632;51.018;4.284;2024-03-17T05:31:18;7.10;;;3.53;;
18997;SDS011;9632;51.018;4.284;2024-03-17T05:33:46;6.20;;;3.95;;
18997;SDS011;9632;51.018;4.284;2024-03-17T05:36:12;9.30;;;3.78;;
18997;SDS011;9632;51.018;4.284;2024-03-17T05:38:37;8.60;;;3.55;;
18997;SDS011;9632;51.018;4.284;2024-03-17T05:41:04;9.05;;;4.10;;
18997;SDS011;9632;51.018;4.284;2024-03-17T05:43:31;6.68;;;3.33;;
18997;SDS011;9632;51.018;4.284;2024-03-17T05:45:59;8.15;;;3.97;;
18997;SDS011;9632;51.018;4.284;2024-03-17T05:48:29;7.13;;;3.97;;
18997;SDS011;9632;51.018;4.284;2024-03-17T05:50:55;12.32;;;4.82;;
18997;SDS011;9632;51.018;4.284;2024-03-17T05:53:21;7.60;;;3.80;;
18997;SDS011;9632;51.018;4.284;2024-03-17T05:55:49;11.20;;;4.80;;
18997;SDS011;9632;51.018;4.284;2024-03-17T05:58:15;8.63;;;4.47;;
18997;SDS011;9632;51.018;4.284;2024-03-17T06:00:40;6.97;;;4.00;;
18997;SDS011;9632;51.018;4.284;2024-03-17T06:03:06;8.93;;;4.53;;
18997;SDS011;9632;51.018;4.284;2024-03-17T06:05:33;6.78;;;4.10;;
18997;SDS011;9632;51.018;4.284;2024-03-17T06:08:00;8.55;;;4.30;;
18997;SDS011;9632;51.018;4.284;2024-03-17T06:10:27;8.80;;;4.22;;
18997;SDS011;9632;51.018;4.284;2024-03-17T06:12:54;7.13;;;4.10;;
18997;SDS011;9632;51.018;4.284;2024-03-17T06:15:19;6.82;;;4.22;;
18997;SDS011;9632;51.018;4.284;2024-03-17T06:17:46;10.38;;;4.40;;
18997;SDS011;9632;51.018;4.284;2024-03-17T06:20:12;9.32;;;4.15;;
18997;SDS011;9632;51.018;4.284;2024-03-17T06:22:38;10.60;;;4.45;;
18997;SDS011;9632;51.018;4.284;2024-03-17T06:25:05;11.57;;;4.88;;
18997;SDS011;9632;51.018;4.284;2024-03-17T06:27:31;10.95;;;5.00;;
18997;SDS011;9632;51.018;4.284;2024-03-17T06:29:59;10.77;;;4.22;;
18997;SDS011;9632;51.018;4.284;2024-03-17T06:32:28;9.32;;;4.78;;
18997;SDS011;9632;51.018;4.284;2024-03-17T06:35:02;9.50;;;4.72;;
18997;SDS011;9632;51.018;4.284;2024-03-17T06:37:28;10.80;;;5.30;;
18997;SDS011;9632;51.018;4.284;2024-03-17T06:39:54;9.65;;;5.20;;
18997;SDS011;9632;51.018;4.284;2024-03-17T06:42:20;11.52;;;5.65;;
18997;SDS011;9632;51.018;4.284;2024-03-17T06:44:45;13.77;;;5.18;;
18997;SDS011;9632;51.018;4.284;2024-03-17T06:47:11;10.98;;;4.80;;
18997;SDS011;9632;51.018;4.284;2024-03-17T06:49:37;9.38;;;5.05;;
18997;SDS011;9632;51.018;4.284;2024-03-17T06:52:03;11.23;;;5.30;;
18997;SDS011;9632;51.018;4.284;2024-03-17T06:54:29;13.20;;;5.28;;
18997;SDS011;9632;51.018;4.284;2024-03-17T06:56:57;10.65;;;5.03;;
18997;SDS011;9632;51.018;4.284;2024-03-17T06:59:22;8.48;;;4.90;;
18997;SDS011;9632;51.018;4.284;2024-03-17T07:01:49;9.95;;;4.60;;
18997;SDS011;9632;51.018;4.284;2024-03-17T07:04:15;9.40;;;4.43;;
18997;SDS011;9632;51.018;4.284;2024-03-17T07:06:41;9.90;;;4.88;;
18997;SDS011;9632;51.018;4.284;2024-03-17T07:09:07;9.15;;;4.43;;
18997;SDS011;9632;51.018;4.284;2024-03-17T07:11:33;7.95;;;4.68;;
18997;SDS011;9632;51.018;4.284;2024-03-17T07:13:59;11.40;;;4.47;;
18997;SDS011;9632;51.018;4.284;2024-03-17T07:16:25;10.82;;;4.72;;
18997;SDS011;9632;51.018;4.284;2024-03-17T07:18:51;10.77;;;5.05;;
18997;SDS011;9632;51.018;4.284;2024-03-17T07:21:18;11.40;;;5.50;;
18997;SDS011;9632;51.018;4.284;2024-03-17T07:23:43;9.70;;;4.72;;
18997;SDS011;9632;51.018;4.284;2024-03-17T07:26:09;10.88;;;5.40;;
18997;SDS011;9632;51.018;4.284;2024-03-17T07:28:35;11.77;;;5.57;;
18997;SDS011;9632;51.018;4.284;2024-03-17T07:31:05;9.45;;;5.13;;
18997;SDS011;9632;51.018;4.284;2024-03-17T07:33:34;11.20;;;5.40;;
18997;SDS011;9632;51.018;4.284;2024-03-17T07:35:59;8.90;;;4.97;;
18997;SDS011;9632;51.018;4.284;2024-03-17T07:38:26;8.68;;;4.88;;
18997;SDS011;9632;51.018;4.284;2024-03-17T07:40:58;8.00;;;4.47;;
18997;SDS011;9632;51.018;4.284;2024-03-17T07:43:28;13.88;;;4.90;;
18997;SDS011;9632;51.018;4.284;2024-03-17T07:46:02;7.60;;;4.20;;
18997;SDS011;9632;51.018;4.284;2024-03-17T07:48:30;7.78;;;4.25;;
18997;SDS011;9632;51.018;4.284;2024-03-17T07:50:57;9.10;;;5.20;;
18997;SDS011;9632;51.018;4.284;2024-03-17T07:53:23;10.65;;;4.55;;
18997;SDS011;9632;51.018;4.284;2024-03-17T07:58:28;10.65;;;3.92;;
18997;SDS011;9632;51.018;4.284;2024-03-17T08:01:01;8.68;;;3.78;;
18997;SDS011;9632;51.018;4.284;2024-03-17T08:03:28;7.55;;;3.85;;
18997;SDS011;9632;51.018;4.284;2024-03-17T08:05:56;7.18;;;3.80;;
18997;SDS011;9632;51.018;4.284;2024-03-17T08:08:22;10.38;;;3.95;;
18997;SDS011;9632;51.018;4.284;2024-03-17T08:10:48;7.65;;;3.45;;
18997;SDS011;9632;51.018;4.284;2024-03-17T08:13:15;8.73;;;4.05;;
18997;SDS011;9632;51.018;4.284;2024-03-17T08:15:41;8.55;;;3.70;;
18997;SDS011;9632;51.018;4.284;2024-03-17T08:18:08;10.23;;;4.03;;
18997;SDS011;9632;51.018;4.284;2024-03-17T08:20:38;12.35;;;4.60;;
18997;SDS011;9632;51.018;4.284;2024-03-17T08:23:11;9.70;;;4.03;;
18997;SDS011;9632;51.018;4.284;2024-03-17T08:25:38;7.40;;;3.50;;
18997;SDS011;9632;51.018;4.284;2024-03-17T08:28:04;7.05;;;3.08;;
18997;SDS011;9632;51.018;4.284;2024-03-17T08:30:30;9.52;;;3.53;;
18997;SDS011;9632;51.018;4.284;2024-03-17T08:32:56;9.23;;;3.65;;
18997;SDS011;9632;51.018;4.284;2024-03-17T08:35:22;8.23;;;3.58;;
18997;SDS011;9632;51.018;4.284;2024-03-17T08:37:48;9.43;;;3.70;;
18997;SDS011;9632;51.018;4.284;2024-03-17T08:40:14;7.53;;;3.10;;
18997;SDS011;9632;51.018;4.284;2024-03-17T08:42:39;7.32;;;3.15;;
18997;SDS011;9632;51.018;4.284;2024-03-17T08:45:05;5.82;;;3.00;;
18997;SDS011;9632;51.018;4.284;2024-03-17T08:47:31;6.40;;;3.08;;
18997;SDS011;9632;51.018;4.284;2024-03-17T08:49:57;10.05;;;3.20;;
18997;SDS011;9632;51.018;4.284;2024-03-17T08:52:28;9.55;;;3.70;;
18997;SDS011;9632;51.018;4.284;2024-03-17T08:54:57;9.02;;;3.22;;
18997;SDS011;9632;51.018;4.284;2024-03-17T08:57:23;6.75;;;3.13;;
18997;SDS011;9632;51.018;4.284;2024-03-17T08:59:50;7.53;;;2.60;;
18997;SDS011;9632;51.018;4.284;2024-03-17T09:02:18;9.98;;;3.05;;
18997;SDS011;9632;51.018;4.284;2024-03-17T09:04:45;7.20;;;3.00;;
18997;SDS011;9632;51.018;4.284;2024-03-17T09:07:12;11.80;;;4.05;;
18997;SDS011;9632;51.018;4.284;2024-03-17T09:09:40;8.07;;;3.15;;
18997;SDS011;9632;51.018;4.284;2024-03-17T09:12:06;6.35;;;2.97;;
18997;SDS011;9632;51.018;4.284;2024-03-17T09:14:32;7.88;;;2.92;;
18997;SDS011;9632;51.018;4.284;2024-03-17T09:16:58;8.02;;;2.90;;
18997;SDS011;9632;51.018;4.284;2024-03-17T09:19:24;7.60;;;3.22;;
18997;SDS011;9632;51.018;4.284;2024-03-17T09:21:49;9.20;;;3.35;;
18997;SDS011;9632;51.018;4.284;2024-03-17T09:24:15;7.05;;;2.47;;
18997;SDS011;9632;51.018;4.284;2024-03-17T09:26:40;7.78;;;2.58;;
18997;SDS011;9632;51.018;4.284;2024-03-17T09:29:06;8.23;;;2.85;;
18997;SDS011;9632;51.018;4.284;2024-03-17T09:31:32;7.72;;;3.10;;
18997;SDS011;9632;51.018;4.284;2024-03-17T09:34:00;10.98;;;4.63;;
18997;SDS011;9632;51.018;4.284;2024-03-17T09:36:29;8.02;;;3.38;;
18997;SDS011;9632;51.018;4.284;2024-03-17T09:38:56;11.70;;;4.45;;
18997;SDS011;9632;51.018;4.284;2024-03-17T09:41:23;11.80;;;4.07;;
18997;SDS011;9632;51.018;4.284;2024-03-17T09:43:54;13.02;;;4.60;;
18997;SDS011;9632;51.018;4.284;2024-03-17T09:46:20;8.13;;;3.55;;
18997;SDS011;9632;51.018;4.284;2024-03-17T09:48:48;9.88;;;4.50;;
18997;SDS011;9632;51.018;4.284;2024-03-17T09:51:18;16.42;;;6.53;;
18997;SDS011;9632;51.018;4.284;2024-03-17T09:53:45;10.95;;;4.38;;
18997;SDS011;9632;51.018;4.284;2024-03-17T09:56:21;8.40;;;3.53;;
18997;SDS011;9632;51.018;4.284;2024-03-17T09:58:47;9.13;;;3.90;;
18997;SDS011;9632;51.018;4.284;2024-03-17T10:01:14;14.70;;;4.55;;
18997;SDS011;9632;51.018;4.284;2024-03-17T10:03:44;13.55;;;3.85;;
18997;SDS011;9632;51.018;4.284;2024-03-17T10:06:48;14.43;;;4.22;;
18997;SDS011;9632;51.018;4.284;2024-03-17T10:09:15;10.88;;;4.25;;
18997;SDS011;9632;51.018;4.284;2024-03-17T10:11:46;9.73;;;3.70;;
18997;SDS011;9632;51.018;4.284;2024-03-17T10:14:12;13.75;;;5.22;;
18997;SDS011;9632;51.018;4.284;2024-03-17T10:16:41;17.13;;;5.95;;
18997;SDS011;9632;51.018;4.284;2024-03-17T10:19:15;11.50;;;3.35;;
18997;SDS011;9632;51.018;4.284;2024-03-17T10:21:48;11.10;;;4.03;;
18997;SDS011;9632;51.018;4.284;2024-03-17T10:24:21;12.88;;;4.13;;
18997;SDS011;9632;51.018;4.284;2024-03-17T10:26:52;13.13;;;5.00;;
18997;SDS011;9632;51.018;4.284;2024-03-17T10:29:24;10.32;;;4.07;;
18997;SDS011;9632;51.018;4.284;2024-03-17T10:31:57;11.07;;;3.80;;
18997;SDS011;9632;51.018;4.284;2024-03-17T10:34:39;10.55;;;4.03;;
18997;SDS011;9632;51.018;4.284;2024-03-17T10:37:09;11.70;;;4.38;;
18997;SDS011;9632;51.018;4.284;2024-03-17T10:39:48;7.03;;;3.20;;
18997;SDS011;9632;51.018;4.284;2024-03-17T10:42:22;9.77;;;3.80;;
18997;SDS011;9632;51.018;4.284;2024-03-17T10:44:50;10.75;;;4.00;;
18997;SDS011;9632;51.018;4.284;2024-03-17T10:47:24;9.82;;;4.05;;
18997;SDS011;9632;51.018;4.284;2024-03-17T10:49:51;9.02;;;2.92;;
18997;SDS011;9632;51.018;4.284;2024-03-17T10:52:19;8.73;;;3.10;;
18997;SDS011;9632;51.018;4.284;2024-03-17T10:54:46;11.38;;;3.17;;
18997;SDS011;9632;51.018;4.284;2024-03-17T10:57:38;7.95;;;2.15;;
18997;SDS011;9632;51.018;4.284;2024-03-17T11:00:15;6.22;;;2.20;;
18997;SDS011;9632;51.018;4.284;2024-03-17T11:02:47;9.40;;;4.03;;
18997;SDS011;9632;51.018;4.284;2024-03-17T11:07:47;8.50;;;2.92;;
18997;SDS011;9632;51.018;4.284;2024-03-17T11:10:15;9.80;;;2.47;;
18997;SDS011;9632;51.018;4.284;2024-03-17T11:12:48;10.60;;;3.45;;
18997;SDS011;9632;51.018;4.284;2024-03-17T11:17:45;7.45;;;2.45;;
18997;SDS011;9632;51.018;4.284;2024-03-17T11:22:55;10.48;;;3.50;;
18997;SDS011;9632;51.018;4.284;2024-03-17T11:27:54;18.23;;;4.82;;
18997;SDS011;9632;51.018;4.284;2024-03-17T11:36:40;7.80;;;2.80;;
18997;SDS011;9632;51.018;4.284;2024-03-17T11:38:50;8.75;;;2.47;;
18997;SDS011;9632;51.018;4.284;2024-03-17T11:44:18;4.78;;;1.50;;
18997;SDS011;9632;51.018;4.284;2024-03-17T11:51:59;8.70;;;1.80;;
18997;SDS011;9632;51.018;4.284;2024-03-17T11:54:28;8.80;;;1.98;;
18997;SDS011;9632;51.018;4.284;2024-03-17T11:59:34;7.05;;;1.80;;
18997;SDS011;9632;51.018;4.284;2024-03-17T12:02:02;8.30;;;1.73;;
18997;SDS011;9632;51.018;4.284;2024-03-17T12:04:27;7.30;;;1.30;;
18997;SDS011;9632;51.018;4.284;2024-03-17T12:06:56;7.13;;;1.27;;
18997;SDS011;9632;51.018;4.284;2024-03-17T12:09:24;5.22;;;1.20;;
18997;SDS011;9632;51.018;4.284;2024-03-17T12:12:01;9.10;;;1.30;;
18997;SDS011;9632;51.018;4.284;2024-03-17T12:14:29;4.72;;;1.23;;
18997;SDS011;9632;51.018;4.284;2024-03-17T12:16:56;5.72;;;1.15;;
18997;SDS011;9632;51.018;4.284;2024-03-17T12:19:23;6.20;;;1.58;;
18997;SDS011;9632;51.018;4.284;2024-03-17T12:21:50;8.48;;;1.60;;
18997;SDS011;9632;51.018;4.284;2024-03-17T12:24:21;8.27;;;1.55;;
18997;SDS011;9632;51.018;4.284;2024-03-17T12:26:48;11.02;;;1.50;;
18997;SDS011;9632;51.018;4.284;2024-03-17T12:29:25;8.68;;;1.48;;
18997;SDS011;9632;51.018;4.284;2024-03-17T12:32:04;8.18;;;1.02;;
18997;SDS011;9632;51.018;4.284;2024-03-17T12:34:31;6.32;;;1.30;;
18997;SDS011;9632;51.018;4.284;2024-03-17T12:36:58;5.80;;;1.27;;
18997;SDS011;9632;51.018;4.284;2024-03-17T12:39:25;7.63;;;1.17;;
18997;SDS011;9632;51.018;4.284;2024-03-17T12:42:11;6.15;;;1.17;;
18997;SDS011;9632;51.018;4.284;2024-03-17T12:44:39;9.10;;;1.17;;
18997;SDS011;9632;51.018;4.284;2024-03-17T12:47:14;7.78;;;1.60;;
18997;SDS011;9632;51.018;4.284;2024-03-17T12:49:56;6.43;;;1.30;;
18997;SDS011;9632;51.018;4.284;2024-03-17T12:54:59;11.32;;;4.57;;
18997;SDS011;9632;51.018;4.284;2024-03-17T13:01:07;5.22;;;1.23;;
18997;SDS011;9632;51.018;4.284;2024-03-17T13:03:33;3.88;;;1.10;;
18997;SDS011;9632;51.018;4.284;2024-03-17T13:06:03;6.18;;;1.15;;
18997;SDS011;9632;51.018;4.284;2024-03-17T13:08:32;4.65;;;1.20;;
18997;SDS011;9632;51.018;4.284;2024-03-17T13:10:59;9.20;;;1.40;;
18997;SDS011;9632;51.018;4.284;2024-03-17T13:13:25;5.40;;;1.08;;
18997;SDS011;9632;51.018;4.284;2024-03-17T13:15:51;8.20;;;1.30;;
18997;SDS011;9632;51.018;4.284;2024-03-17T13:18:17;7.13;;;1.50;;
18997;SDS011;9632;51.018;4.284;2024-03-17T13:20:48;6.22;;;1.00;;
18997;SDS011;9632;51.018;4.284;2024-03-17T13:23:18;6.80;;;1.55;;
18997;SDS011;9632;51.018;4.284;2024-03-17T13:25:46;4.80;;;0.93;;
18997;SDS011;9632;51.018;4.284;2024-03-17T13:28:13;7.07;;;1.42;;
18997;SDS011;9632;51.018;4.284;2024-03-17T13:30:39;5.43;;;1.15;;
18997;SDS011;9632;51.018;4.284;2024-03-17T13:33:07;4.70;;;1.00;;
18997;SDS011;9632;51.018;4.284;2024-03-17T13:35:37;4.22;;;1.27;;
18997;SDS011;9632;51.018;4.284;2024-03-17T13:38:05;6.30;;;1.10;;
18997;SDS011;9632;51.018;4.284;2024-03-17T13:40:35;6.68;;;1.35;;
18997;SDS011;9632;51.018;4.284;2024-03-17T13:43:03;7.15;;;1.40;;
18997;SDS011;9632;51.018;4.284;2024-03-17T13:45:29;5.25;;;1.30;;
18997;SDS011;9632;51.018;4.284;2024-03-17T13:48:03;7.15;;;1.80;;
18997;SDS011;9632;51.018;4.284;2024-03-17T13:50:29;7.50;;;1.48;;
18997;SDS011;9632;51.018;4.284;2024-03-17T13:52:55;7.20;;;1.40;;
18997;SDS011;9632;51.018;4.284;2024-03-17T13:55:22;6.18;;;1.20;;
18997;SDS011;9632;51.018;4.284;2024-03-17T13:57:51;8.68;;;1.05;;
18997;SDS011;9632;51.018;4.284;2024-03-17T14:00:19;7.80;;;1.00;;
18997;SDS011;9632;51.018;4.284;2024-03-17T14:02:46;7.00;;;1.02;;
18997;SDS011;9632;51.018;4.284;2024-03-17T14:05:14;6.97;;;1.00;;
18997;SDS011;9632;51.018;4.284;2024-03-17T14:07:41;9.07;;;1.20;;
18997;SDS011;9632;51.018;4.284;2024-03-17T14:10:07;6.38;;;1.00;;
18997;SDS011;9632;51.018;4.284;2024-03-17T14:12:34;6.97;;;1.20;;
18997;SDS011;9632;51.018;4.284;2024-03-17T14:15:00;8.50;;;1.20;;
18997;SDS011;9632;51.018;4.284;2024-03-17T14:17:29;5.45;;;1.00;;
18997;SDS011;9632;51.018;4.284;2024-03-17T14:19:54;6.47;;;1.27;;
18997;SDS011;9632;51.018;4.284;2024-03-17T14:22:20;6.75;;;1.20;;
18997;SDS011;9632;51.018;4.284;2024-03-17T14:24:46;5.95;;;1.45;;
18997;SDS011;9632;51.018;4.284;2024-03-17T14:27:12;4.25;;;1.30;;
18997;SDS011;9632;51.018;4.284;2024-03-17T14:29:38;8.13;;;2.45;;
18997;SDS011;9632;51.018;4.284;2024-03-17T14:32:04;7.78;;;1.92;;
18997;SDS011;9632;51.018;4.284;2024-03-17T14:34:30;5.70;;;1.77;;
18997;SDS011;9632;51.018;4.284;2024-03-17T14:37:00;8.85;;;2.10;;
18997;SDS011;9632;51.018;4.284;2024-03-17T14:39:27;8.70;;;2.00;;
18997;SDS011;9632;51.018;4.284;2024-03-17T14:41:54;13.55;;;2.60;;
18997;SDS011;9632;51.018;4.284;2024-03-17T14:44:20;8.95;;;2.70;;
18997;SDS011;9632;51.018;4.284;2024-03-17T14:46:46;9.80;;;1.85;;
18997;SDS011;9632;51.018;4.284;2024-03-17T14:49:12;7.43;;;2.20;;
18997;SDS011;9632;51.018;4.284;2024-03-17T14:51:38;6.78;;;1.23;;
18997;SDS011;9632;51.018;4.284;2024-03-17T14:54:04;8.07;;;1.42;;
18997;SDS011;9632;51.018;4.284;2024-03-17T14:56:30;7.13;;;1.77;;
18997;SDS011;9632;51.018;4.284;2024-03-17T14:58:56;6.63;;;1.60;;
18997;SDS011;9632;51.018;4.284;2024-03-17T15:01:22;9.68;;;2.42;;
18997;SDS011;9632;51.018;4.284;2024-03-17T15:03:47;6.10;;;2.20;;
18997;SDS011;9632;51.018;4.284;2024-03-17T15:06:13;4.80;;;1.50;;
18997;SDS011;9632;51.018;4.284;2024-03-17T15:08:40;5.28;;;1.40;;
18997;SDS011;9632;51.018;4.284;2024-03-17T15:11:09;4.72;;;2.00;;
18997;SDS011;9632;51.018;4.284;2024-03-17T15:13:35;15.90;;;4.32;;
18997;SDS011;9632;51.018;4.284;2024-03-17T15:16:04;19.05;;;7.88;;
18997;SDS011;9632;51.018;4.284;2024-03-17T15:18:31;18.55;;;5.85;;
18997;SDS011;9632;51.018;4.284;2024-03-17T15:20:58;10.27;;;2.70;;
18997;SDS011;9632;51.018;4.284;2024-03-17T15:23:29;9.30;;;3.30;;
18997;SDS011;9632;51.018;4.284;2024-03-17T15:25:59;17.30;;;5.65;;
18997;SDS011;9632;51.018;4.284;2024-03-17T15:28:33;17.00;;;4.47;;
18997;SDS011;9632;51.018;4.284;2024-03-17T15:31:06;13.18;;;4.10;;
18997;SDS011;9632;51.018;4.284;2024-03-17T15:33:34;13.75;;;3.35;;
18997;SDS011;9632;51.018;4.284;2024-03-17T15:36:05;10.82;;;3.42;;